Time;durP1;ratioP1;P1;durP2;ratioP2;P2;SDS_P1;SDS_P2;PMS_P1;PMS_P2;Temp;Humidity;BMP_temperature;BMP_pressure;BME280_temperature;BME280_humidity;BME280_pressure;Samples;Min_cycle;Max_cycle;Signal;HPM_P1;HPM_P2
2021/12/31 00:01:25;;;;;;;3.80;1.60;;;;;;;;;;5089114;28;20048;-72
2021/12/31 00:03:52;;;;;;;7.03;1.63;;;;;;;;;;5088710;28;20407;-72
2021/12/31 00:06:18;;;;;;;4.60;1.50;;;;;;;;;;5089261;28;20052;-71
2021/12/31 00:08:44;;;;;;;4.88;1.75;;;;;;;;;;5089742;28;20156;-71
2021/12/31 00:11:10;;;;;;;5.70;1.95;;;;;;;;;;5090032;28;20413;-71
2021/12/31 00:13:36;;;;;;;3.47;1.17;;;;;;;;;;5088657;28;20481;-71
2021/12/31 00:16:02;;;;;;;4.03;1.50;;;;;;;;;;5090433;28;20498;-71
2021/12/31 00:18:28;;;;;;;4.10;1.30;;;;;;;;;;5089959;28;20632;-71
2021/12/31 00:20:55;;;;;;;4.65;1.30;;;;;;;;;;5089926;28;20044;-72
2021/12/31 00:23:25;;;;;;;4.15;1.42;;;;;;;;;;5090057;28;20055;-72
2021/12/31 00:25:51;;;;;;;5.05;1.45;;;;;;;;;;5089400;28;20047;-72
2021/12/31 00:28:17;;;;;;;3.20;1.40;;;;;;;;;;5090063;28;20040;-72
2021/12/31 00:30:43;;;;;;;4.03;1.45;;;;;;;;;;5088552;28;20046;-72
2021/12/31 00:33:10;;;;;;;3.75;1.27;;;;;;;;;;5089620;28;20044;-72
2021/12/31 00:35:37;;;;;;;3.63;1.38;;;;;;;;;;5088971;28;20528;-72
2021/12/31 00:38:03;;;;;;;2.85;1.10;;;;;;;;;;5089916;28;20054;-73
2021/12/31 00:40:29;;;;;;;3.55;1.27;;;;;;;;;;5089513;28;20044;-72
2021/12/31 00:42:55;;;;;;;4.00;1.38;;;;;;;;;;5088450;28;20075;-73
2021/12/31 00:45:24;;;;;;;3.70;1.30;;;;;;;;;;5089866;28;20074;-72
2021/12/31 00:47:50;;;;;;;4.40;1.58;;;;;;;;;;5087289;28;20048;-72
2021/12/31 00:50:17;;;;;;;3.78;1.45;;;;;;;;;;5089619;28;20044;-72
2021/12/31 00:52:43;;;;;;;3.90;1.30;;;;;;;;;;5089515;28;20040;-73
2021/12/31 00:55:10;;;;;;;3.80;1.25;;;;;;;;;;5089745;28;20127;-73
2021/12/31 00:57:36;;;;;;;3.08;1.40;;;;;;;;;;5087749;28;20048;-73
2021/12/31 01:00:03;;;;;;;4.50;1.40;;;;;;;;;;5089580;28;20051;-73
2021/12/31 01:02:29;;;;;;;2.97;1.13;;;;;;;;;;5089674;28;20093;-72
2021/12/31 01:04:56;;;;;;;4.57;1.35;;;;;;;;;;5089128;28;20166;-73
2021/12/31 01:07:22;;;;;;;3.78;1.40;;;;;;;;;;5088378;28;20048;-73
2021/12/31 01:09:48;;;;;;;5.22;1.40;;;;;;;;;;5088750;28;20509;-73
2021/12/31 01:12:15;;;;;;;4.30;1.60;;;;;;;;;;5071023;28;20066;-72
2021/12/31 01:17:37;;;;;;;4.78;1.42;;;;;;;;;;5089229;28;20398;-72
2021/12/31 01:20:04;;;;;;;4.10;1.63;;;;;;;;;;5089215;28;20059;-72
2021/12/31 01:22:32;;;;;;;4.50;1.48;;;;;;;;;;5088439;28;20040;-72
2021/12/31 01:24:58;;;;;;;3.15;1.20;;;;;;;;;;5089054;28;20450;-74
2021/12/31 01:27:24;;;;;;;3.78;1.40;;;;;;;;;;5088962;28;20101;-74
2021/12/31 01:29:50;;;;;;;4.35;1.33;;;;;;;;;;5088731;28;20048;-75
2021/12/31 01:32:16;;;;;;;10.23;1.70;;;;;;;;;;5088198;28;20086;-74
2021/12/31 01:34:42;;;;;;;5.53;1.73;;;;;;;;;;5088897;28;20075;-73
2021/12/31 01:37:09;;;;;;;8.73;1.58;;;;;;;;;;5087815;28;20051;-72
2021/12/31 01:39:35;;;;;;;5.65;1.35;;;;;;;;;;5089502;28;20048;-72
2021/12/31 01:42:02;;;;;;;6.40;2.05;;;;;;;;;;5089042;28;20413;-72
2021/12/31 01:44:36;;;;;;;5.00;1.38;;;;;;;;;;5089102;28;20525;-72
2021/12/31 01:47:08;;;;;;;7.40;1.45;;;;;;;;;;5088637;28;20056;-72
2021/12/31 01:49:38;;;;;;;5.57;1.10;;;;;;;;;;5089120;28;20479;-72
2021/12/31 01:52:05;;;;;;;5.40;1.45;;;;;;;;;;5088254;28;20566;-72
2021/12/31 01:54:31;;;;;;;6.15;1.27;;;;;;;;;;5088294;28;20449;-76
2021/12/31 01:56:58;;;;;;;5.10;1.38;;;;;;;;;;5086483;28;20059;-76
2021/12/31 01:59:24;;;;;;;9.00;1.55;;;;;;;;;;5088084;28;20458;-72
2021/12/31 02:01:51;;;;;;;7.25;1.50;;;;;;;;;;5091860;28;20071;-72
2021/12/31 02:04:17;;;;;;;6.38;1.25;;;;;;;;;;5092261;28;20255;-72
2021/12/31 02:06:43;;;;;;;4.47;1.58;;;;;;;;;;5090589;28;20043;-72
2021/12/31 02:09:09;;;;;;;4.25;1.30;;;;;;;;;;5090154;28;20093;-72
2021/12/31 02:11:35;;;;;;;6.07;1.40;;;;;;;;;;5091635;28;20089;-72
2021/12/31 02:14:03;;;;;;;3.80;1.42;;;;;;;;;;5091488;28;20134;-72
2021/12/31 02:16:30;;;;;;;7.13;1.42;;;;;;;;;;5091873;28;20044;-72
2021/12/31 02:18:57;;;;;;;5.35;1.90;;;;;;;;;;5090967;28;20090;-72
2021/12/31 02:21:23;;;;;;;4.65;1.25;;;;;;;;;;5091861;28;20076;-72
2021/12/31 02:23:55;;;;;;;5.75;1.23;;;;;;;;;;5090896;28;20102;-73
2021/12/31 02:26:21;;;;;;;4.70;1.40;;;;;;;;;;5090683;28;20044;-72
2021/12/31 02:28:48;;;;;;;5.00;1.38;;;;;;;;;;5090957;28;20052;-72
2021/12/31 02:31:14;;;;;;;4.38;1.25;;;;;;;;;;5090443;28;20414;-72
2021/12/31 02:33:40;;;;;;;5.28;1.80;;;;;;;;;;5091537;28;20097;-72
2021/12/31 02:36:07;;;;;;;4.55;1.20;;;;;;;;;;5090630;28;20089;-73
2021/12/31 02:38:33;;;;;;;5.95;1.40;;;;;;;;;;5091948;28;20101;-73
2021/12/31 02:40:59;;;;;;;6.13;1.20;;;;;;;;;;5091367;28;20044;-73
2021/12/31 02:43:25;;;;;;;4.10;1.20;;;;;;;;;;5089702;28;20047;-73
2021/12/31 02:45:51;;;;;;;5.60;1.27;;;;;;;;;;5090852;28;20066;-72
2021/12/31 02:48:24;;;;;;;4.63;1.42;;;;;;;;;;5091253;28;20051;-72
2021/12/31 02:50:52;;;;;;;4.63;1.25;;;;;;;;;;5090893;28;20043;-73
2021/12/31 02:53:18;;;;;;;4.68;1.58;;;;;;;;;;5091156;28;20047;-72
2021/12/31 02:55:45;;;;;;;5.93;1.63;;;;;;;;;;5090357;28;20101;-72
2021/12/31 02:58:11;;;;;;;6.63;1.83;;;;;;;;;;5089848;28;20175;-72
2021/12/31 03:00:39;;;;;;;3.92;1.20;;;;;;;;;;5090208;28;20486;-72
2021/12/31 03:03:05;;;;;;;3.58;1.27;;;;;;;;;;5091101;28;20067;-72
2021/12/31 03:05:32;;;;;;;5.72;1.73;;;;;;;;;;5089597;28;20048;-72
2021/12/31 03:07:58;;;;;;;4.00;1.10;;;;;;;;;;5089966;28;20078;-72
2021/12/31 03:10:24;;;;;;;7.25;1.20;;;;;;;;;;5090957;28;20135;-72
2021/12/31 03:12:51;;;;;;;4.10;1.10;;;;;;;;;;5090435;28;20048;-72
2021/12/31 03:15:18;;;;;;;4.40;1.20;;;;;;;;;;5089165;28;20048;-72
2021/12/31 03:17:45;;;;;;;3.25;1.50;;;;;;;;;;5090734;28;20503;-72
2021/12/31 03:20:14;;;;;;;3.47;1.10;;;;;;;;;;5089554;28;20059;-73
2021/12/31 03:22:41;;;;;;;5.22;1.30;;;;;;;;;;5090312;28;20621;-73
2021/12/31 03:25:08;;;;;;;3.05;0.88;;;;;;;;;;5090505;28;20047;-73
2021/12/31 03:27:34;;;;;;;3.60;1.58;;;;;;;;;;5090096;28;20070;-72
2021/12/31 03:30:00;;;;;;;4.60;1.17;;;;;;;;;;5089923;28;20467;-73
2021/12/31 03:32:26;;;;;;;3.20;0.90;;;;;;;;;;5090382;28;20040;-73
2021/12/31 03:34:52;;;;;;;3.78;1.08;;;;;;;;;;5090337;28;20044;-72
2021/12/31 03:37:18;;;;;;;5.75;1.63;;;;;;;;;;5090231;28;20043;-73
2021/12/31 03:39:44;;;;;;;3.50;1.10;;;;;;;;;;5090281;28;20055;-73
2021/12/31 03:42:14;;;;;;;5.47;1.58;;;;;;;;;;5072481;28;20068;-73
2021/12/31 03:44:41;;;;;;;3.10;1.00;;;;;;;;;;5089468;28;20056;-74
2021/12/31 03:47:07;;;;;;;3.55;1.55;;;;;;;;;;5090570;28;20043;-74
2021/12/31 03:49:33;;;;;;;5.72;1.38;;;;;;;;;;5090239;28;20048;-73
2021/12/31 03:51:59;;;;;;;3.58;1.20;;;;;;;;;;5090689;28;20379;-73
2021/12/31 03:54:25;;;;;;;3.95;1.02;;;;;;;;;;5089010;28;20048;-73
2021/12/31 03:56:51;;;;;;;3.17;1.23;;;;;;;;;;5090234;28;20101;-72
2021/12/31 03:59:17;;;;;;;3.78;1.40;;;;;;;;;;5090642;28;20040;-73
2021/12/31 04:01:43;;;;;;;3.53;1.75;;;;;;;;;;5089905;28;20173;-73
2021/12/31 04:04:10;;;;;;;4.05;1.05;;;;;;;;;;5090131;28;20083;-72
2021/12/31 04:06:36;;;;;;;3.30;1.30;;;;;;;;;;5090548;28;20051;-72
2021/12/31 04:09:02;;;;;;;3.67;1.25;;;;;;;;;;5090262;28;20044;-72
2021/12/31 04:11:28;;;;;;;3.70;1.15;;;;;;;;;;5090017;28;20092;-73
2021/12/31 04:13:54;;;;;;;2.97;1.20;;;;;;;;;;5089844;28;20141;-73
2021/12/31 04:16:20;;;;;;;2.75;1.00;;;;;;;;;;5089857;28;20089;-72
2021/12/31 04:18:46;;;;;;;4.53;1.00;;;;;;;;;;5090049;28;20047;-73
2021/12/31 04:21:16;;;;;;;3.55;1.00;;;;;;;;;;5090489;28;20496;-72
2021/12/31 04:23:52;;;;;;;3.40;1.17;;;;;;;;;;5089576;28;20137;-73
2021/12/31 04:26:18;;;;;;;2.33;1.02;;;;;;;;;;5089942;28;20055;-73
2021/12/31 04:28:44;;;;;;;2.63;1.00;;;;;;;;;;5089913;28;20127;-73
2021/12/31 04:31:11;;;;;;;4.30;1.20;;;;;;;;;;5089543;28;20079;-73
2021/12/31 04:33:37;;;;;;;8.45;1.33;;;;;;;;;;5088484;28;20659;-75
2021/12/31 04:36:03;;;;;;;6.03;1.20;;;;;;;;;;5089598;28;20075;-75
2021/12/31 04:38:29;;;;;;;7.20;1.40;;;;;;;;;;5088568;28;20131;-72
2021/12/31 04:40:55;;;;;;;7.15;1.40;;;;;;;;;;5089810;28;20080;-73
2021/12/31 04:43:21;;;;;;;5.25;1.75;;;;;;;;;;5089334;28;20113;-73
2021/12/31 04:45:47;;;;;;;4.45;1.48;;;;;;;;;;5089727;28;20054;-72
2021/12/31 04:48:13;;;;;;;5.45;1.27;;;;;;;;;;5089626;28;20044;-72
2021/12/31 04:50:39;;;;;;;7.18;1.70;;;;;;;;;;5088616;28;20048;-72
2021/12/31 04:53:06;;;;;;;6.28;1.50;;;;;;;;;;5089015;28;20036;-72
2021/12/31 04:55:32;;;;;;;3.92;1.00;;;;;;;;;;5088640;28;20052;-72
2021/12/31 04:57:58;;;;;;;6.13;1.27;;;;;;;;;;5088964;28;20050;-72
2021/12/31 05:00:25;;;;;;;6.07;1.25;;;;;;;;;;5089175;28;20075;-72
2021/12/31 05:02:51;;;;;;;3.40;1.20;;;;;;;;;;5088547;28;20089;-73
2021/12/31 05:05:17;;;;;;;6.13;1.38;;;;;;;;;;5089017;28;20036;-72
2021/12/31 05:07:43;;;;;;;4.18;1.83;;;;;;;;;;5089259;28;20499;-72
2021/12/31 05:10:09;;;;;;;4.43;1.40;;;;;;;;;;5088932;28;20154;-72
2021/12/31 05:12:37;;;;;;;3.75;1.40;;;;;;;;;;5089347;28;20056;-72
2021/12/31 05:15:06;;;;;;;3.50;1.00;;;;;;;;;;5089665;28;20093;-72
2021/12/31 05:17:33;;;;;;;2.78;1.08;;;;;;;;;;5089433;28;20136;-72
2021/12/31 05:19:59;;;;;;;2.80;0.98;;;;;;;;;;5088091;28;20460;-72
2021/12/31 05:22:25;;;;;;;3.67;1.15;;;;;;;;;;5089200;28;20089;-72
2021/12/31 05:24:51;;;;;;;3.30;1.13;;;;;;;;;;5088583;28;20133;-72
2021/12/31 05:27:17;;;;;;;4.38;1.23;;;;;;;;;;5089133;28;20123;-73
2021/12/31 05:29:43;;;;;;;2.58;0.90;;;;;;;;;;5089070;28;20544;-73
2021/12/31 05:32:09;;;;;;;4.22;1.23;;;;;;;;;;5088129;28;20051;-73
2021/12/31 05:34:35;;;;;;;2.75;1.10;;;;;;;;;;5088631;28;20052;-74
2021/12/31 05:37:02;;;;;;;3.28;1.05;;;;;;;;;;5093281;28;20055;-73
2021/12/31 05:39:28;;;;;;;2.28;0.95;;;;;;;;;;5092638;28;20079;-73
2021/12/31 05:41:54;;;;;;;2.67;1.00;;;;;;;;;;5092965;28;20127;-73
2021/12/31 05:44:21;;;;;;;4.93;1.10;;;;;;;;;;5092947;28;20516;-73
2021/12/31 05:46:49;;;;;;;4.85;1.40;;;;;;;;;;5093111;28;20525;-76
2021/12/31 05:49:16;;;;;;;4.43;0.90;;;;;;;;;;5092730;28;20043;-72
2021/12/31 05:51:42;;;;;;;5.10;1.10;;;;;;;;;;5092838;28;20411;-73
2021/12/31 05:54:08;;;;;;;4.97;1.00;;;;;;;;;;5091788;28;20036;-73
2021/12/31 05:56:34;;;;;;;4.85;1.13;;;;;;;;;;5092607;28;20044;-72
2021/12/31 05:59:00;;;;;;;2.55;0.93;;;;;;;;;;5092277;28;20189;-73
2021/12/31 06:01:26;;;;;;;2.83;1.15;;;;;;;;;;5091693;28;20115;-73
2021/12/31 06:03:53;;;;;;;2.20;1.15;;;;;;;;;;5092277;28;20463;-74
2021/12/31 06:06:19;;;;;;;3.15;0.90;;;;;;;;;;5091892;28;20044;-73
2021/12/31 06:08:45;;;;;;;3.80;1.20;;;;;;;;;;5092033;28;20088;-73
2021/12/31 06:11:11;;;;;;;3.13;1.20;;;;;;;;;;5091894;28;20055;-73
2021/12/31 06:13:37;;;;;;;3.05;1.23;;;;;;;;;;5091048;28;20056;-72
2021/12/31 06:16:05;;;;;;;3.38;1.00;;;;;;;;;;5091872;28;20508;-73
2021/12/31 06:18:31;;;;;;;4.32;1.25;;;;;;;;;;5091898;28;20094;-72
2021/12/31 06:20:57;;;;;;;3.00;1.00;;;;;;;;;;5091510;28;20051;-72
2021/12/31 06:23:23;;;;;;;3.63;1.10;;;;;;;;;;5091741;28;20131;-71
2021/12/31 06:25:49;;;;;;;4.85;1.98;;;;;;;;;;5091691;28;20135;-71
2021/12/31 06:28:15;;;;;;;3.22;1.05;;;;;;;;;;5091232;28;20460;-71
2021/12/31 06:30:41;;;;;;;2.63;1.02;;;;;;;;;;5090109;28;20079;-71
2021/12/31 06:33:07;;;;;;;2.40;1.00;;;;;;;;;;5091601;28;20493;-71
2021/12/31 06:35:33;;;;;;;4.90;0.90;;;;;;;;;;5090991;28;20079;-71
2021/12/31 06:38:01;;;;;;;4.32;1.13;;;;;;;;;;5091183;28;20043;-72
2021/12/31 06:40:29;;;;;;;3.58;0.90;;;;;;;;;;5090164;28;20101;-71
2021/12/31 06:42:55;;;;;;;2.75;1.10;;;;;;;;;;5091085;28;20055;-72
2021/12/31 06:45:21;;;;;;;2.85;1.00;;;;;;;;;;5091044;28;20076;-72
2021/12/31 06:47:47;;;;;;;2.63;1.05;;;;;;;;;;5091667;28;20074;-72
2021/12/31 06:50:13;;;;;;;2.47;1.00;;;;;;;;;;5091875;28;20492;-72
2021/12/31 06:52:42;;;;;;;3.05;1.08;;;;;;;;;;5091721;28;20134;-71
2021/12/31 06:55:08;;;;;;;3.72;1.35;;;;;;;;;;5091480;28;20059;-73
2021/12/31 06:57:35;;;;;;;4.18;1.00;;;;;;;;;;5091194;28;20079;-71
2021/12/31 07:00:01;;;;;;;2.67;1.25;;;;;;;;;;5090901;28;20607;-71
2021/12/31 07:02:27;;;;;;;2.72;1.20;;;;;;;;;;5091063;28;20136;-71
2021/12/31 07:04:53;;;;;;;3.55;0.95;;;;;;;;;;5090368;28;20142;-72
2021/12/31 07:07:19;;;;;;;4.60;1.00;;;;;;;;;;5090966;28;20140;-72
2021/12/31 07:09:45;;;;;;;3.40;1.00;;;;;;;;;;5090931;28;20506;-72
2021/12/31 07:12:11;;;;;;;3.13;1.40;;;;;;;;;;5090039;28;20087;-73
2021/12/31 07:14:37;;;;;;;2.97;1.30;;;;;;;;;;5089315;28;20473;-73
2021/12/31 07:17:03;;;;;;;3.63;1.20;;;;;;;;;;5090563;28;20055;-73
2021/12/31 07:19:29;;;;;;;3.50;1.13;;;;;;;;;;5090189;28;20052;-72
2021/12/31 07:21:55;;;;;;;2.75;1.00;;;;;;;;;;5089273;28;20070;-72
2021/12/31 07:24:21;;;;;;;2.70;1.08;;;;;;;;;;5090727;28;20093;-73
2021/12/31 07:26:47;;;;;;;2.33;1.10;;;;;;;;;;5090010;28;20051;-73
2021/12/31 07:29:13;;;;;;;4.32;1.00;;;;;;;;;;5090381;28;20135;-73
2021/12/31 07:31:39;;;;;;;3.25;1.00;;;;;;;;;;5088961;28;20419;-73
2021/12/31 07:34:05;;;;;;;2.20;0.85;;;;;;;;;;5090763;28;20044;-73
2021/12/31 07:36:31;;;;;;;3.63;1.02;;;;;;;;;;5090330;28;20055;-71
2021/12/31 07:39:05;;;;;;;1.77;0.82;;;;;;;;;;5089983;28;20127;-72
2021/12/31 07:41:31;;;;;;;1.65;0.85;;;;;;;;;;5090401;28;20506;-72
2021/12/31 07:43:57;;;;;;;3.67;0.90;;;;;;;;;;5090419;28;20047;-72
2021/12/31 07:46:23;;;;;;;2.38;1.00;;;;;;;;;;5072089;28;20036;-71
2021/12/31 07:48:49;;;;;;;4.63;1.13;;;;;;;;;;5088352;28;20040;-70
2021/12/31 07:51:16;;;;;;;2.78;0.77;;;;;;;;;;5090193;28;20072;-71
2021/12/31 07:53:42;;;;;;;5.18;1.05;;;;;;;;;;5089773;28;20043;-70
2021/12/31 07:56:08;;;;;;;4.68;0.82;;;;;;;;;;5089681;28;20555;-71
2021/12/31 07:58:34;;;;;;;8.10;1.02;;;;;;;;;;5089451;28;20044;-70
2021/12/31 08:01:00;;;;;;;3.35;0.80;;;;;;;;;;5090373;28;20386;-70
2021/12/31 08:03:26;;;;;;;3.42;1.02;;;;;;;;;;5090575;28;20600;-70
2021/12/31 08:05:52;;;;;;;2.00;1.05;;;;;;;;;;5090217;28;20055;-70
2021/12/31 08:08:19;;;;;;;3.72;1.00;;;;;;;;;;5090476;28;20043;-70
2021/12/31 08:10:46;;;;;;;2.38;1.00;;;;;;;;;;5089115;28;20403;-70
2021/12/31 08:13:12;;;;;;;5.03;1.15;;;;;;;;;;5090554;28;20117;-71
2021/12/31 08:15:38;;;;;;;2.83;0.98;;;;;;;;;;5088978;28;20418;-71
2021/12/31 08:18:04;;;;;;;2.85;1.05;;;;;;;;;;5090581;28;20471;-71
2021/12/31 08:20:30;;;;;;;2.28;0.90;;;;;;;;;;5089606;28;20512;-71
2021/12/31 08:23:05;;;;;;;3.00;0.85;;;;;;;;;;5090111;28;20516;-71
2021/12/31 08:25:31;;;;;;;4.32;0.90;;;;;;;;;;5088826;28;20385;-72
2021/12/31 08:27:57;;;;;;;2.88;0.82;;;;;;;;;;5089134;28;20047;-72
2021/12/31 08:30:23;;;;;;;2.40;0.88;;;;;;;;;;5088624;28;20048;-72
2021/12/31 08:32:49;;;;;;;2.75;1.13;;;;;;;;;;5087947;28;20646;-72
2021/12/31 08:35:15;;;;;;;3.20;0.77;;;;;;;;;;5090349;28;20036;-72
2021/12/31 08:37:41;;;;;;;3.13;0.90;;;;;;;;;;5089913;28;20052;-72
2021/12/31 08:40:07;;;;;;;2.65;1.10;;;;;;;;;;5088767;28;20072;-72
2021/12/31 08:42:35;;;;;;;4.00;0.90;;;;;;;;;;5088554;28;20048;-75
2021/12/31 08:45:01;;;;;;;5.07;0.93;;;;;;;;;;5089361;28;20067;-75
2021/12/31 08:47:27;;;;;;;3.30;0.88;;;;;;;;;;5089719;28;20490;-74
2021/12/31 08:49:53;;;;;;;2.40;1.00;;;;;;;;;;5088647;28;20048;-74
2021/12/31 08:52:19;;;;;;;1.73;0.60;;;;;;;;;;5088711;28;20051;-76
2021/12/31 08:54:45;;;;;;;2.85;0.90;;;;;;;;;;5088864;28;20048;-75
2021/12/31 08:57:11;;;;;;;3.47;0.90;;;;;;;;;;5089253;28;20425;-73
2021/12/31 08:59:38;;;;;;;2.42;1.17;;;;;;;;;;5071171;28;20036;-73
2021/12/31 09:02:04;;;;;;;1.75;0.80;;;;;;;;;;5088205;28;20059;-73
2021/12/31 09:04:30;;;;;;;2.83;1.00;;;;;;;;;;5087446;28;20540;-73
2021/12/31 09:06:56;;;;;;;3.30;1.00;;;;;;;;;;5087800;28;20048;-75
2021/12/31 09:09:22;;;;;;;3.13;1.20;;;;;;;;;;5087715;28;20051;-74
2021/12/31 09:11:48;;;;;;;3.78;0.80;;;;;;;;;;5089214;28;20383;-74
2021/12/31 09:14:14;;;;;;;3.05;1.00;;;;;;;;;;5088419;28;20066;-74
2021/12/31 09:16:45;;;;;;;3.53;1.17;;;;;;;;;;5088398;28;20046;-74
2021/12/31 09:19:11;;;;;;;2.80;1.20;;;;;;;;;;5089935;28;20501;-74
2021/12/31 09:21:37;;;;;;;2.58;1.30;;;;;;;;;;5089461;28;20046;-74
2021/12/31 09:24:03;;;;;;;2.15;0.98;;;;;;;;;;5089214;28;20105;-73
2021/12/31 09:26:29;;;;;;;2.88;1.00;;;;;;;;;;5080502;28;20047;-76
2021/12/31 09:28:55;;;;;;;3.42;0.95;;;;;;;;;;5078149;28;20091;-75
2021/12/31 09:31:21;;;;;;;2.00;0.93;;;;;;;;;;5076556;28;20134;-74
2021/12/31 09:33:48;;;;;;;1.92;1.00;;;;;;;;;;5087599;28;20055;-72
2021/12/31 09:36:14;;;;;;;3.65;1.02;;;;;;;;;;5087002;28;20561;-73
2021/12/31 09:38:40;;;;;;;2.38;1.15;;;;;;;;;;5088088;28;20450;-74
2021/12/31 09:41:06;;;;;;;1.77;0.80;;;;;;;;;;5083486;28;20532;-75
2021/12/31 09:43:33;;;;;;;2.10;0.95;;;;;;;;;;5087254;28;20043;-75
2021/12/31 09:45:59;;;;;;;1.90;0.98;;;;;;;;;;5088891;28;20052;-75
2021/12/31 09:48:25;;;;;;;3.78;1.38;;;;;;;;;;5088354;28;20092;-74
2021/12/31 09:50:54;;;;;;;3.20;1.27;;;;;;;;;;5088456;28;20517;-76
2021/12/31 09:53:21;;;;;;;4.05;1.25;;;;;;;;;;5088586;28;20059;-75
2021/12/31 09:55:48;;;;;;;2.97;1.25;;;;;;;;;;5087975;28;20036;-75
2021/12/31 09:58:16;;;;;;;2.78;1.15;;;;;;;;;;5087808;28;20040;-75
2021/12/31 10:00:43;;;;;;;3.88;1.60;;;;;;;;;;5086636;28;20154;-75
2021/12/31 10:03:09;;;;;;;5.63;1.40;;;;;;;;;;5086908;28;20051;-74
2021/12/31 10:05:41;;;;;;;3.45;1.30;;;;;;;;;;5084851;28;20315;-74
2021/12/31 10:08:13;;;;;;;4.90;1.58;;;;;;;;;;5084896;28;20498;-73
2021/12/31 10:10:39;;;;;;;3.85;1.17;;;;;;;;;;5085802;28;20664;-74
2021/12/31 10:13:07;;;;;;;2.53;1.17;;;;;;;;;;5088939;28;20147;-75
2021/12/31 10:15:38;;;;;;;3.63;1.40;;;;;;;;;;5089102;28;20109;-74
2021/12/31 10:18:12;;;;;;;2.63;1.15;;;;;;;;;;5089322;28;20059;-74
2021/12/31 10:20:49;;;;;;;3.72;1.27;;;;;;;;;;5088817;28;20087;-75
2021/12/31 10:23:15;;;;;;;2.28;1.13;;;;;;;;;;5092800;28;20084;-75
2021/12/31 10:25:41;;;;;;;3.08;1.40;;;;;;;;;;5092493;28;20043;-74
2021/12/31 10:28:09;;;;;;;2.65;1.15;;;;;;;;;;5091057;28;20109;-75
2021/12/31 10:30:35;;;;;;;4.28;1.30;;;;;;;;;;5092593;28;20409;-75
2021/12/31 10:33:01;;;;;;;3.42;1.20;;;;;;;;;;5091599;28;20414;-75
2021/12/31 10:35:37;;;;;;;2.80;1.33;;;;;;;;;;5090400;28;20119;-75
2021/12/31 10:38:06;;;;;;;1.83;1.27;;;;;;;;;;5090244;28;20051;-74
2021/12/31 10:40:36;;;;;;;3.13;1.25;;;;;;;;;;5088383;28;20048;-74
2021/12/31 10:43:07;;;;;;;2.38;1.48;;;;;;;;;;5090292;28;20759;-74
2021/12/31 10:45:34;;;;;;;2.38;1.20;;;;;;;;;;5089912;28;20076;-75
2021/12/31 10:48:10;;;;;;;3.10;1.33;;;;;;;;;;5089831;28;20048;-75
2021/12/31 10:50:37;;;;;;;3.28;1.27;;;;;;;;;;5089031;28;20044;-75
2021/12/31 10:53:13;;;;;;;2.53;1.20;;;;;;;;;;5091612;28;20418;-75
2021/12/31 10:55:40;;;;;;;4.15;1.33;;;;;;;;;;5089132;28;20071;-75
2021/12/31 10:58:14;;;;;;;2.60;1.27;;;;;;;;;;5089832;28;20414;-75
2021/12/31 11:00:41;;;;;;;4.43;1.38;;;;;;;;;;5089574;28;20043;-74
2021/12/31 11:03:08;;;;;;;3.60;1.48;;;;;;;;;;5072794;28;20048;-75
2021/12/31 11:05:34;;;;;;;2.80;1.38;;;;;;;;;;5089237;28;20039;-75
2021/12/31 11:08:04;;;;;;;4.40;1.42;;;;;;;;;;5088831;28;20044;-74
2021/12/31 11:10:34;;;;;;;3.17;1.40;;;;;;;;;;5087688;28;20121;-74
2021/12/31 11:13:02;;;;;;;4.57;1.65;;;;;;;;;;5088840;28;20109;-74
2021/12/31 11:15:28;;;;;;;4.50;1.63;;;;;;;;;;5089360;28;20090;-74
2021/12/31 11:17:54;;;;;;;2.47;1.35;;;;;;;;;;5089206;28;20040;-74
2021/12/31 11:20:22;;;;;;;2.55;1.27;;;;;;;;;;5088944;28;20162;-76
2021/12/31 11:22:48;;;;;;;3.60;1.50;;;;;;;;;;5088541;28;20573;-74
2021/12/31 11:25:27;;;;;;;4.80;1.80;;;;;;;;;;5089270;28;20047;-74
2021/12/31 11:27:53;;;;;;;;;;;;;;;;;;5088253;28;20498;-74
2021/12/31 11:30:28;;;;;;;3.03;1.33;;;;;;;;;;5087293;28;19926;-75
2021/12/31 11:32:59;;;;;;;2.75;1.92;;;;;;;;;;5088081;28;20036;-75
2021/12/31 11:35:32;;;;;;;4.95;2.03;;;;;;;;;;5087521;28;20398;-74
2021/12/31 11:37:58;;;;;;;4.32;1.70;;;;;;;;;;5088732;28;20144;-75
2021/12/31 11:40:35;;;;;;;3.33;1.42;;;;;;;;;;5088196;28;20044;-75
2021/12/31 11:43:13;;;;;;;2.63;1.30;;;;;;;;;;5088229;28;20067;-75
2021/12/31 11:45:39;;;;;;;3.13;1.45;;;;;;;;;;5087267;28;20383;-75
2021/12/31 11:48:35;;;;;;;4.07;1.83;;;;;;;;;;5088207;28;20159;-74
2021/12/31 11:51:04;;;;;;;4.38;1.90;;;;;;;;;;5078099;28;20047;-76
2021/12/31 11:53:30;;;;;;;;;;;;;;;;;;5088450;28;20075;-77
2021/12/31 11:55:56;;;;;;;4.03;1.60;;;;;;;;;;5087797;28;19963;-76
2021/12/31 11:58:38;;;;;;;3.10;1.67;;;;;;;;;;5088354;28;20089;-76
2021/12/31 12:01:24;;;;;;;3.60;1.60;;;;;;;;;;5088243;28;20086;-76
2021/12/31 12:03:50;;;;;;;3.08;1.60;;;;;;;;;;5074948;28;20080;-77
2021/12/31 12:06:34;;;;;;;5.75;2.03;;;;;;;;;;5088166;28;20055;-76
2021/12/31 12:09:01;;;;;;;5.97;2.17;;;;;;;;;;5086459;28;20048;-78
2021/12/31 12:11:49;;;;;;;3.20;1.63;;;;;;;;;;5087319;28;20036;-77
2021/12/31 12:14:27;;;;;;;3.63;1.63;;;;;;;;;;5083893;28;20048;-78
2021/12/31 12:16:59;;;;;;;5.50;1.52;;;;;;;;;;5086009;28;20044;-77
2021/12/31 12:19:44;;;;;;;4.80;2.03;;;;;;;;;;5086523;28;20055;-76
2021/12/31 12:22:24;;;;;;;3.53;1.52;;;;;;;;;;5086919;28;20044;-78
2021/12/31 12:24:51;;;;;;;4.07;1.73;;;;;;;;;;5086848;28;20473;-77
2021/12/31 12:27:17;;;;;;;3.75;1.90;;;;;;;;;;5086857;28;20044;-77
2021/12/31 12:29:44;;;;;;;3.38;1.58;;;;;;;;;;5085635;28;20315;-76
2021/12/31 12:32:11;;;;;;;3.13;1.50;;;;;;;;;;5087486;28;20052;-75
2021/12/31 12:34:37;;;;;;;4.20;1.70;;;;;;;;;;5088184;28;20032;-76
2021/12/31 12:37:04;;;;;;;4.57;1.88;;;;;;;;;;5086707;28;20059;-75
2021/12/31 12:39:30;;;;;;;4.95;1.98;;;;;;;;;;5086909;28;20039;-82
2021/12/31 12:41:56;;;;;;;3.50;1.60;;;;;;;;;;5087312;28;20043;-81
2021/12/31 12:44:23;;;;;;;4.72;1.60;;;;;;;;;;5086235;28;20044;-76
2021/12/31 12:46:58;;;;;;;2.50;1.38;;;;;;;;;;5086727;28;20516;-78
2021/12/31 12:49:26;;;;;;;5.35;1.75;;;;;;;;;;5086451;28;20072;-76
2021/12/31 12:51:54;;;;;;;4.03;1.40;;;;;;;;;;5082012;28;20726;-75
2021/12/31 12:54:21;;;;;;;3.80;1.52;;;;;;;;;;5086997;28;20047;-76
2021/12/31 12:56:51;;;;;;;4.13;1.65;;;;;;;;;;5086800;28;20044;-76
2021/12/31 12:59:22;;;;;;;2.70;1.50;;;;;;;;;;5085659;28;20602;-78
2021/12/31 13:01:49;;;;;;;4.97;1.75;;;;;;;;;;5086908;28;20079;-77
2021/12/31 13:04:16;;;;;;;3.65;1.50;;;;;;;;;;5075852;28;20115;-77
2021/12/31 13:07:07;;;;;;;4.93;1.80;;;;;;;;;;5085666;28;20036;-76
2021/12/31 13:09:33;;;;;;;3.50;1.60;;;;;;;;;;5086050;28;20048;-76
2021/12/31 13:12:02;;;;;;;4.53;1.83;;;;;;;;;;5086841;28;20402;-75
2021/12/31 13:14:32;;;;;;;7.37;1.53;;;;;;;;;;5085018;28;20040;-76
2021/12/31 13:16:59;;;;;;;6.78;1.50;;;;;;;;;;5086832;28;20055;-75
2021/12/31 13:19:30;;;;;;;4.60;1.83;;;;;;;;;;5086695;28;20044;-76
2021/12/31 13:22:01;;;;;;;5.78;1.65;;;;;;;;;;5086818;28;20466;-75
2021/12/31 13:24:28;;;;;;;5.32;1.45;;;;;;;;;;5085021;28;20048;-76
2021/12/31 13:26:55;;;;;;;5.75;1.98;;;;;;;;;;5085454;28;20048;-75
2021/12/31 13:29:31;;;;;;;2.90;1.38;;;;;;;;;;5086779;28;20044;-74
2021/12/31 13:32:04;;;;;;;3.92;1.70;;;;;;;;;;5085317;28;20051;-75
2021/12/31 13:34:38;;;;;;;2.80;1.55;;;;;;;;;;5086661;28;20159;-75
2021/12/31 13:37:04;;;;;;;5.38;1.58;;;;;;;;;;5083658;28;20040;-76
2021/12/31 13:39:32;;;;;;;3.70;1.70;;;;;;;;;;5087147;28;20115;-76
2021/12/31 13:42:03;;;;;;;3.00;1.40;;;;;;;;;;5085106;28;20044;-76
2021/12/31 13:44:29;;;;;;;3.28;1.50;;;;;;;;;;5085414;28;20043;-75
2021/12/31 13:47:15;;;;;;;3.10;1.55;;;;;;;;;;5086569;28;20048;-75
2021/12/31 13:49:47;;;;;;;4.45;1.40;;;;;;;;;;5085325;28;20379;-76
2021/12/31 13:52:17;;;;;;;2.38;1.40;;;;;;;;;;5068501;28;20054;-75
2021/12/31 13:54:44;;;;;;;4.18;1.80;;;;;;;;;;5086518;28;20063;-76
2021/12/31 13:57:30;;;;;;;2.63;1.33;;;;;;;;;;5089177;28;20490;-76
2021/12/31 13:59:56;;;;;;;3.17;1.25;;;;;;;;;;5070268;28;20527;-76
2021/12/31 14:02:26;;;;;;;3.70;1.30;;;;;;;;;;5090757;28;20036;-75
2021/12/31 14:04:58;;;;;;;4.15;1.48;;;;;;;;;;5090288;28;20450;-77
2021/12/31 14:07:51;;;;;;;3.38;1.42;;;;;;;;;;5090506;28;20048;-77
2021/12/31 14:10:18;;;;;;;2.65;1.35;;;;;;;;;;5088582;28;20374;-77
2021/12/31 14:12:44;;;;;;;3.13;1.60;;;;;;;;;;5090066;28;20059;-76
2021/12/31 14:15:11;;;;;;;2.95;1.25;;;;;;;;;;5090353;28;20044;-76
2021/12/31 14:17:37;;;;;;;4.00;1.63;;;;;;;;;;5088260;28;20058;-76
2021/12/31 14:20:03;;;;;;;3.60;1.48;;;;;;;;;;5089669;28;20078;-76
2021/12/31 14:22:29;;;;;;;2.90;1.40;;;;;;;;;;5089243;28;20092;-76
2021/12/31 14:24:55;;;;;;;4.05;1.50;;;;;;;;;;5089939;28;20461;-76
2021/12/31 14:27:21;;;;;;;3.67;1.45;;;;;;;;;;5090163;28;20042;-74
2021/12/31 14:29:47;;;;;;;2.83;1.30;;;;;;;;;;5089985;28;20461;-74
2021/12/31 14:32:13;;;;;;;3.00;1.35;;;;;;;;;;5089635;28;20123;-75
2021/12/31 14:34:39;;;;;;;3.05;1.40;;;;;;;;;;5088350;28;20402;-76
2021/12/31 14:37:09;;;;;;;2.47;1.23;;;;;;;;;;5089619;28;20135;-76
2021/12/31 14:39:38;;;;;;;8.85;1.55;;;;;;;;;;5087925;28;20115;-77
2021/12/31 14:42:05;;;;;;;6.20;1.45;;;;;;;;;;5089837;28;20513;-76
2021/12/31 14:44:31;;;;;;;5.03;1.20;;;;;;;;;;5090599;28;20417;-74
2021/12/31 14:46:57;;;;;;;4.93;1.70;;;;;;;;;;5090165;28;20044;-77
2021/12/31 14:49:24;;;;;;;5.78;1.80;;;;;;;;;;5090098;28;21264;-74